sensor_id;sensor_type;location;lat;lon;timestamp;temperature;humidity
7998;DHT22;4044;49.814;7.828;2023-04-24T00:01:39;11.90;99.90
7998;DHT22;4044;49.814;7.828;2023-04-24T00:04:05;12.10;99.90
7998;DHT22;4044;49.814;7.828;2023-04-24T00:06:32;12.10;99.90
7998;DHT22;4044;49.814;7.828;2023-04-24T00:09:05;12.00;99.90
7998;DHT22;4044;49.814;7.828;2023-04-24T00:11:30;11.80;99.90
7998;DHT22;4044;49.814;7.828;2023-04-24T00:13:56;11.80;99.90
7998;DHT22;4044;49.814;7.828;2023-04-24T00:16:22;11.70;99.90
7998;DHT22;4044;49.814;7.828;2023-04-24T00:18:48;11.70;99.90
7998;DHT22;4044;49.814;7.828;2023-04-24T00:21:14;11.70;99.90
7998;DHT22;4044;49.814;7.828;2023-04-24T00:23:41;11.60;99.90
7998;DHT22;4044;49.814;7.828;2023-04-24T00:26:06;11.60;99.90
7998;DHT22;4044;49.814;7.828;2023-04-24T00:28:32;11.80;99.90
7998;DHT22;4044;49.814;7.828;2023-04-24T00:30:57;11.90;99.90
7998;DHT22;4044;49.814;7.828;2023-04-24T00:33:23;12.00;99.90
7998;DHT22;4044;49.814;7.828;2023-04-24T00:35:48;12.10;99.90
7998;DHT22;4044;49.814;7.828;2023-04-24T00:38:14;12.20;99.90
7998;DHT22;4044;49.814;7.828;2023-04-24T00:40:39;12.20;99.90
7998;DHT22;4044;49.814;7.828;2023-04-24T00:43:05;12.10;99.90
7998;DHT22;4044;49.814;7.828;2023-04-24T00:45:30;12.10;99.90
7998;DHT22;4044;49.814;7.828;2023-04-24T00:47:57;12.10;99.90
7998;DHT22;4044;49.814;7.828;2023-04-24T00:50:24;12.20;99.90
7998;DHT22;4044;49.814;7.828;2023-04-24T00:52:49;12.10;99.90
7998;DHT22;4044;49.814;7.828;2023-04-24T00:55:16;12.20;99.90
7998;DHT22;4044;49.814;7.828;2023-04-24T00:57:42;12.20;99.90
7998;DHT22;4044;49.814;7.828;2023-04-24T01:00:08;12.20;99.90
7998;DHT22;4044;49.814;7.828;2023-04-24T01:02:39;12.20;99.90
7998;DHT22;4044;49.814;7.828;2023-04-24T01:05:07;12.20;99.90
7998;DHT22;4044;49.814;7.828;2023-04-24T01:07:33;12.20;99.90
7998;DHT22;4044;49.814;7.828;2023-04-24T01:09:59;12.20;99.90
7998;DHT22;4044;49.814;7.828;2023-04-24T01:12:25;12.20;99.90
7998;DHT22;4044;49.814;7.828;2023-04-24T01:14:50;12.30;99.90
7998;DHT22;4044;49.814;7.828;2023-04-24T01:17:16;12.30;99.90
7998;DHT22;4044;49.814;7.828;2023-04-24T01:19:42;12.40;99.90
7998;DHT22;4044;49.814;7.828;2023-04-24T01:22:13;12.30;99.90
7998;DHT22;4044;49.814;7.828;2023-04-24T01:24:39;12.30;99.90
7998;DHT22;4044;49.814;7.828;2023-04-24T01:27:06;12.30;99.90
7998;DHT22;4044;49.814;7.828;2023-04-24T01:29:32;12.30;99.90
7998;DHT22;4044;49.814;7.828;2023-04-24T01:31:58;12.30;99.90
7998;DHT22;4044;49.814;7.828;2023-04-24T01:34:24;12.30;99.90
7998;DHT22;4044;49.814;7.828;2023-04-24T01:36:49;12.30;99.90
7998;DHT22;4044;49.814;7.828;2023-04-24T01:39:15;12.30;99.90
7998;DHT22;4044;49.814;7.828;2023-04-24T01:41:42;12.30;99.90
7998;DHT22;4044;49.814;7.828;2023-04-24T01:44:07;12.30;99.90
7998;DHT22;4044;49.814;7.828;2023-04-24T01:46:33;12.30;99.90
7998;DHT22;4044;49.814;7.828;2023-04-24T01:49:01;12.30;99.90
7998;DHT22;4044;49.814;7.828;2023-04-24T01:51:27;12.30;99.90
7998;DHT22;4044;49.814;7.828;2023-04-24T01:53:52;12.30;99.90
7998;DHT22;4044;49.814;7.828;2023-04-24T01:56:20;12.30;99.90
7998;DHT22;4044;49.814;7.828;2023-04-24T01:58:47;12.20;99.90
7998;DHT22;4044;49.814;7.828;2023-04-24T02:01:19;12.10;99.90
7998;DHT22;4044;49.814;7.828;2023-04-24T02:03:45;12.10;99.90
7998;DHT22;4044;49.814;7.828;2023-04-24T02:06:11;12.10;99.90
7998;DHT22;4044;49.814;7.828;2023-04-24T02:08:36;12.20;99.90
7998;DHT22;4044;49.814;7.828;2023-04-24T02:11:02;12.10;99.90
7998;DHT22;4044;49.814;7.828;2023-04-24T02:13:28;12.00;99.90
7998;DHT22;4044;49.814;7.828;2023-04-24T02:15:53;12.00;99.90
7998;DHT22;4044;49.814;7.828;2023-04-24T02:18:19;12.10;99.90
7998;DHT22;4044;49.814;7.828;2023-04-24T02:20:45;12.00;99.90
7998;DHT22;4044;49.814;7.828;2023-04-24T02:23:11;12.00;99.90
7998;DHT22;4044;49.814;7.828;2023-04-24T02:25:36;12.00;99.90
7998;DHT22;4044;49.814;7.828;2023-04-24T02:28:02;11.90;99.90
7998;DHT22;4044;49.814;7.828;2023-04-24T02:30:28;11.90;99.90
7998;DHT22;4044;49.814;7.828;2023-04-24T02:32:54;11.80;99.90
7998;DHT22;4044;49.814;7.828;2023-04-24T02:35:20;11.80;99.90
7998;DHT22;4044;49.814;7.828;2023-04-24T02:37:45;11.80;99.90
7998;DHT22;4044;49.814;7.828;2023-04-24T02:40:11;11.80;99.90
7998;DHT22;4044;49.814;7.828;2023-04-24T02:42:37;11.70;99.90
7998;DHT22;4044;49.814;7.828;2023-04-24T02:45:02;11.70;99.90
7998;DHT22;4044;49.814;7.828;2023-04-24T02:47:28;11.70;99.90
7998;DHT22;4044;49.814;7.828;2023-04-24T02:49:53;11.70;99.90
7998;DHT22;4044;49.814;7.828;2023-04-24T02:52:19;11.60;99.90
7998;DHT22;4044;49.814;7.828;2023-04-24T02:54:44;11.60;99.90
7998;DHT22;4044;49.814;7.828;2023-04-24T02:57:10;11.60;99.90
7998;DHT22;4044;49.814;7.828;2023-04-24T02:59:35;11.50;99.90
7998;DHT22;4044;49.814;7.828;2023-04-24T03:02:01;11.50;99.90
7998;DHT22;4044;49.814;7.828;2023-04-24T03:04:26;11.60;99.90
7998;DHT22;4044;49.814;7.828;2023-04-24T03:06:52;11.60;99.90
7998;DHT22;4044;49.814;7.828;2023-04-24T03:09:20;11.40;99.90
7998;DHT22;4044;49.814;7.828;2023-04-24T03:11:46;11.40;99.90
7998;DHT22;4044;49.814;7.828;2023-04-24T03:14:11;11.20;99.90
7998;DHT22;4044;49.814;7.828;2023-04-24T03:16:37;11.10;99.90
7998;DHT22;4044;49.814;7.828;2023-04-24T03:19:02;11.00;99.90
7998;DHT22;4044;49.814;7.828;2023-04-24T03:21:28;10.90;99.90
7998;DHT22;4044;49.814;7.828;2023-04-24T03:23:54;10.70;99.90
7998;DHT22;4044;49.814;7.828;2023-04-24T03:26:20;10.60;99.90
7998;DHT22;4044;49.814;7.828;2023-04-24T03:28:45;10.50;99.90
7998;DHT22;4044;49.814;7.828;2023-04-24T03:31:11;10.40;99.90
7998;DHT22;4044;49.814;7.828;2023-04-24T03:33:36;10.30;99.90
7998;DHT22;4044;49.814;7.828;2023-04-24T03:36:02;10.20;99.90
7998;DHT22;4044;49.814;7.828;2023-04-24T03:38:27;10.10;99.90
7998;DHT22;4044;49.814;7.828;2023-04-24T03:40:53;10.00;99.90
7998;DHT22;4044;49.814;7.828;2023-04-24T03:43:19;10.00;99.90
7998;DHT22;4044;49.814;7.828;2023-04-24T03:45:44;9.90;99.90
7998;DHT22;4044;49.814;7.828;2023-04-24T03:48:10;9.80;99.90
7998;DHT22;4044;49.814;7.828;2023-04-24T03:50:35;9.80;99.90
7998;DHT22;4044;49.814;7.828;2023-04-24T03:53:01;9.70;99.90
7998;DHT22;4044;49.814;7.828;2023-04-24T03:55:26;9.70;99.90
7998;DHT22;4044;49.814;7.828;2023-04-24T03:57:52;9.70;99.90
7998;DHT22;4044;49.814;7.828;2023-04-24T04:00:17;9.70;99.90
7998;DHT22;4044;49.814;7.828;2023-04-24T04:02:43;9.80;99.90
7998;DHT22;4044;49.814;7.828;2023-04-24T04:05:09;9.90;99.90
7998;DHT22;4044;49.814;7.828;2023-04-24T04:07:35;10.00;99.90
7998;DHT22;4044;49.814;7.828;2023-04-24T04:10:00;10.10;99.90
7998;DHT22;4044;49.814;7.828;2023-04-24T04:12:26;10.10;99.90
7998;DHT22;4044;49.814;7.828;2023-04-24T04:14:51;10.10;99.90
7998;DHT22;4044;49.814;7.828;2023-04-24T04:17:17;10.10;99.90
7998;DHT22;4044;49.814;7.828;2023-04-24T04:19:43;10.10;99.90
7998;DHT22;4044;49.814;7.828;2023-04-24T04:22:08;10.10;99.90
7998;DHT22;4044;49.814;7.828;2023-04-24T04:24:34;10.00;99.90
7998;DHT22;4044;49.814;7.828;2023-04-24T04:27:03;10.00;99.90
7998;DHT22;4044;49.814;7.828;2023-04-24T04:29:30;10.00;99.90
7998;DHT22;4044;49.814;7.828;2023-04-24T04:31:57;10.10;99.90
7998;DHT22;4044;49.814;7.828;2023-04-24T04:34:22;10.20;99.90
7998;DHT22;4044;49.814;7.828;2023-04-24T04:36:48;10.20;99.00
7998;DHT22;4044;49.814;7.828;2023-04-24T04:39:14;10.20;99.00
7998;DHT22;4044;49.814;7.828;2023-04-24T04:41:40;10.20;98.10
7998;DHT22;4044;49.814;7.828;2023-04-24T04:44:07;10.10;97.70
7998;DHT22;4044;49.814;7.828;2023-04-24T04:46:34;10.10;98.00
7998;DHT22;4044;49.814;7.828;2023-04-24T04:49:00;10.10;97.60
7998;DHT22;4044;49.814;7.828;2023-04-24T04:51:26;10.10;97.10
7998;DHT22;4044;49.814;7.828;2023-04-24T04:53:52;10.00;97.40
7998;DHT22;4044;49.814;7.828;2023-04-24T04:56:18;10.00;97.40
7998;DHT22;4044;49.814;7.828;2023-04-24T04:58:43;9.90;97.80
7998;DHT22;4044;49.814;7.828;2023-04-24T05:01:09;10.00;97.50
7998;DHT22;4044;49.814;7.828;2023-04-24T05:03:34;10.00;97.50
7998;DHT22;4044;49.814;7.828;2023-04-24T05:06:01;10.10;97.90
7998;DHT22;4044;49.814;7.828;2023-04-24T05:08:27;10.20;98.80
7998;DHT22;4044;49.814;7.828;2023-04-24T05:10:53;10.10;98.60
7998;DHT22;4044;49.814;7.828;2023-04-24T05:13:19;10.20;99.10
7998;DHT22;4044;49.814;7.828;2023-04-24T05:15:44;10.20;99.50
7998;DHT22;4044;49.814;7.828;2023-04-24T05:18:10;10.40;99.40
7998;DHT22;4044;49.814;7.828;2023-04-24T05:20:35;10.60;99.20
7998;DHT22;4044;49.814;7.828;2023-04-24T05:23:01;10.70;99.30
7998;DHT22;4044;49.814;7.828;2023-04-24T05:25:27;10.80;99.10
7998;DHT22;4044;49.814;7.828;2023-04-24T05:27:52;10.90;99.00
7998;DHT22;4044;49.814;7.828;2023-04-24T05:30:19;10.80;98.80
7998;DHT22;4044;49.814;7.828;2023-04-24T05:32:45;10.90;98.80
7998;DHT22;4044;49.814;7.828;2023-04-24T05:35:10;10.70;98.00
7998;DHT22;4044;49.814;7.828;2023-04-24T05:37:36;10.70;98.40
7998;DHT22;4044;49.814;7.828;2023-04-24T05:40:01;10.80;98.90
7998;DHT22;4044;49.814;7.828;2023-04-24T05:42:29;10.90;99.10
7998;DHT22;4044;49.814;7.828;2023-04-24T05:44:55;10.90;98.40
7998;DHT22;4044;49.814;7.828;2023-04-24T05:47:20;11.00;98.50
7998;DHT22;4044;49.814;7.828;2023-04-24T05:49:47;11.00;98.50
7998;DHT22;4044;49.814;7.828;2023-04-24T05:52:13;11.10;99.50
7998;DHT22;4044;49.814;7.828;2023-04-24T05:54:38;10.90;99.90
7998;DHT22;4044;49.814;7.828;2023-04-24T05:57:04;10.50;99.90
7998;DHT22;4044;49.814;7.828;2023-04-24T05:59:33;10.20;99.90
7998;DHT22;4044;49.814;7.828;2023-04-24T06:01:59;9.80;99.90
7998;DHT22;4044;49.814;7.828;2023-04-24T06:04:24;9.70;99.90
7998;DHT22;4044;49.814;7.828;2023-04-24T06:06:50;9.50;99.90
7998;DHT22;4044;49.814;7.828;2023-04-24T06:09:21;9.40;99.90
7998;DHT22;4044;49.814;7.828;2023-04-24T06:11:47;9.40;99.90
7998;DHT22;4044;49.814;7.828;2023-04-24T06:14:13;9.50;99.90
7998;DHT22;4044;49.814;7.828;2023-04-24T06:16:40;9.40;99.90
7998;DHT22;4044;49.814;7.828;2023-04-24T06:19:05;9.40;99.90
7998;DHT22;4044;49.814;7.828;2023-04-24T06:21:31;9.50;99.90
7998;DHT22;4044;49.814;7.828;2023-04-24T06:23:56;9.60;99.90
7998;DHT22;4044;49.814;7.828;2023-04-24T06:26:23;9.90;99.90
7998;DHT22;4044;49.814;7.828;2023-04-24T06:28:50;10.20;99.90
7998;DHT22;4044;49.814;7.828;2023-04-24T06:31:16;10.50;99.90
7998;DHT22;4044;49.814;7.828;2023-04-24T06:33:42;10.50;99.90
7998;DHT22;4044;49.814;7.828;2023-04-24T06:36:08;10.70;99.90
7998;DHT22;4044;49.814;7.828;2023-04-24T06:38:33;10.90;99.90
7998;DHT22;4044;49.814;7.828;2023-04-24T06:40:59;11.00;99.90
7998;DHT22;4044;49.814;7.828;2023-04-24T06:43:25;10.90;99.90
7998;DHT22;4044;49.814;7.828;2023-04-24T06:45:51;11.00;99.90
7998;DHT22;4044;49.814;7.828;2023-04-24T06:48:16;11.00;99.90
7998;DHT22;4044;49.814;7.828;2023-04-24T06:50:42;10.90;99.90
7998;DHT22;4044;49.814;7.828;2023-04-24T06:53:07;10.70;99.90
7998;DHT22;4044;49.814;7.828;2023-04-24T06:55:33;10.80;99.90
7998;DHT22;4044;49.814;7.828;2023-04-24T06:58:00;11.00;99.90
7998;DHT22;4044;49.814;7.828;2023-04-24T07:00:26;11.20;99.90
7998;DHT22;4044;49.814;7.828;2023-04-24T07:02:51;11.20;99.90
7998;DHT22;4044;49.814;7.828;2023-04-24T07:05:17;11.20;99.90
7998;DHT22;4044;49.814;7.828;2023-04-24T07:07:46;11.30;99.90
7998;DHT22;4044;49.814;7.828;2023-04-24T07:10:12;11.50;99.90
7998;DHT22;4044;49.814;7.828;2023-04-24T07:12:38;11.60;99.30
7998;DHT22;4044;49.814;7.828;2023-04-24T07:15:04;11.60;98.40
7998;DHT22;4044;49.814;7.828;2023-04-24T07:17:30;11.60;98.30
7998;DHT22;4044;49.814;7.828;2023-04-24T07:19:56;11.50;97.90
7998;DHT22;4044;49.814;7.828;2023-04-24T07:22:21;11.50;97.20
7998;DHT22;4044;49.814;7.828;2023-04-24T07:24:47;11.50;96.80
7998;DHT22;4044;49.814;7.828;2023-04-24T07:27:12;11.60;96.60
7998;DHT22;4044;49.814;7.828;2023-04-24T07:29:40;11.70;97.70
7998;DHT22;4044;49.814;7.828;2023-04-24T07:32:05;11.70;96.80
7998;DHT22;4044;49.814;7.828;2023-04-24T07:34:31;11.60;96.60
7998;DHT22;4044;49.814;7.828;2023-04-24T07:36:57;11.40;96.80
7998;DHT22;4044;49.814;7.828;2023-04-24T07:39:23;11.20;96.10
7998;DHT22;4044;49.814;7.828;2023-04-24T07:41:49;11.10;96.40
7998;DHT22;4044;49.814;7.828;2023-04-24T07:44:14;11.00;97.20
7998;DHT22;4044;49.814;7.828;2023-04-24T07:46:40;11.00;98.00
7998;DHT22;4044;49.814;7.828;2023-04-24T07:49:06;11.10;97.80
7998;DHT22;4044;49.814;7.828;2023-04-24T07:51:32;11.30;97.80
7998;DHT22;4044;49.814;7.828;2023-04-24T07:54:03;11.60;97.20
7998;DHT22;4044;49.814;7.828;2023-04-24T07:56:30;11.80;96.70
7998;DHT22;4044;49.814;7.828;2023-04-24T07:58:56;12.10;97.30
7998;DHT22;4044;49.814;7.828;2023-04-24T08:01:21;12.20;96.30
7998;DHT22;4044;49.814;7.828;2023-04-24T08:03:47;12.20;95.70
7998;DHT22;4044;49.814;7.828;2023-04-24T08:06:13;12.30;96.40
7998;DHT22;4044;49.814;7.828;2023-04-24T08:08:38;12.40;96.30
7998;DHT22;4044;49.814;7.828;2023-04-24T08:11:04;12.30;95.50
7998;DHT22;4044;49.814;7.828;2023-04-24T08:13:29;12.20;95.40
7998;DHT22;4044;49.814;7.828;2023-04-24T08:15:56;11.90;94.80
7998;DHT22;4044;49.814;7.828;2023-04-24T08:18:22;11.70;95.20
7998;DHT22;4044;49.814;7.828;2023-04-24T08:20:47;11.80;96.70
7998;DHT22;4044;49.814;7.828;2023-04-24T08:23:13;12.00;96.10
7998;DHT22;4044;49.814;7.828;2023-04-24T08:25:39;12.00;95.40
7998;DHT22;4044;49.814;7.828;2023-04-24T08:28:06;12.10;96.00
7998;DHT22;4044;49.814;7.828;2023-04-24T08:30:32;11.90;96.10
7998;DHT22;4044;49.814;7.828;2023-04-24T08:32:57;11.70;96.60
7998;DHT22;4044;49.814;7.828;2023-04-24T08:35:23;11.70;95.50
7998;DHT22;4044;49.814;7.828;2023-04-24T08:37:48;11.90;95.70
7998;DHT22;4044;49.814;7.828;2023-04-24T08:40:16;11.90;95.70
7998;DHT22;4044;49.814;7.828;2023-04-24T08:42:42;12.10;95.60
7998;DHT22;4044;49.814;7.828;2023-04-24T08:45:10;12.20;95.70
7998;DHT22;4044;49.814;7.828;2023-04-24T08:47:38;12.10;95.10
7998;DHT22;4044;49.814;7.828;2023-04-24T08:50:04;12.20;95.50
7998;DHT22;4044;49.814;7.828;2023-04-24T08:52:32;12.40;96.20
7998;DHT22;4044;49.814;7.828;2023-04-24T08:54:59;12.50;96.00
7998;DHT22;4044;49.814;7.828;2023-04-24T08:57:25;12.40;94.60
7998;DHT22;4044;49.814;7.828;2023-04-24T08:59:52;12.60;94.90
7998;DHT22;4044;49.814;7.828;2023-04-24T09:02:18;12.70;95.20
7998;DHT22;4044;49.814;7.828;2023-04-24T09:04:44;12.70;95.40
7998;DHT22;4044;49.814;7.828;2023-04-24T09:07:12;12.80;94.90
7998;DHT22;4044;49.814;7.828;2023-04-24T09:09:38;13.00;95.40
7998;DHT22;4044;49.814;7.828;2023-04-24T09:12:04;13.30;96.00
7998;DHT22;4044;49.814;7.828;2023-04-24T09:14:30;13.40;95.10
7998;DHT22;4044;49.814;7.828;2023-04-24T09:16:57;13.50;95.00
7998;DHT22;4044;49.814;7.828;2023-04-24T09:19:22;13.60;94.50
7998;DHT22;4044;49.814;7.828;2023-04-24T09:21:48;13.70;94.40
7998;DHT22;4044;49.814;7.828;2023-04-24T09:24:18;13.30;93.50
7998;DHT22;4044;49.814;7.828;2023-04-24T09:26:46;13.30;94.50
7998;DHT22;4044;49.814;7.828;2023-04-24T09:29:18;13.50;94.90
7998;DHT22;4044;49.814;7.828;2023-04-24T09:31:45;13.10;93.50
7998;DHT22;4044;49.814;7.828;2023-04-24T09:34:11;12.90;94.30
7998;DHT22;4044;49.814;7.828;2023-04-24T09:36:39;13.00;95.20
7998;DHT22;4044;49.814;7.828;2023-04-24T09:39:08;13.00;94.90
7998;DHT22;4044;49.814;7.828;2023-04-24T09:41:44;13.10;94.60
7998;DHT22;4044;49.814;7.828;2023-04-24T09:44:13;13.00;95.10
7998;DHT22;4044;49.814;7.828;2023-04-24T09:46:40;12.90;94.60
7998;DHT22;4044;49.814;7.828;2023-04-24T09:49:12;13.40;94.60
7998;DHT22;4044;49.814;7.828;2023-04-24T09:51:38;13.50;94.20
7998;DHT22;4044;49.814;7.828;2023-04-24T09:54:04;13.60;95.50
7998;DHT22;4044;49.814;7.828;2023-04-24T09:56:42;13.90;94.60
7998;DHT22;4044;49.814;7.828;2023-04-24T09:59:08;14.20;93.90
7998;DHT22;4044;49.814;7.828;2023-04-24T10:01:34;14.50;93.90
7998;DHT22;4044;49.814;7.828;2023-04-24T10:04:00;14.70;93.60
7998;DHT22;4044;49.814;7.828;2023-04-24T10:06:35;14.50;92.40
7998;DHT22;4044;49.814;7.828;2023-04-24T10:09:02;14.20;92.60
7998;DHT22;4044;49.814;7.828;2023-04-24T10:11:29;13.80;93.50
7998;DHT22;4044;49.814;7.828;2023-04-24T10:13:55;13.50;93.30
7998;DHT22;4044;49.814;7.828;2023-04-24T10:16:22;13.30;93.90
7998;DHT22;4044;49.814;7.828;2023-04-24T10:18:48;13.10;93.10
7998;DHT22;4044;49.814;7.828;2023-04-24T10:21:15;13.00;93.00
7998;DHT22;4044;49.814;7.828;2023-04-24T10:23:42;12.80;93.40
7998;DHT22;4044;49.814;7.828;2023-04-24T10:26:12;12.80;93.60
7998;DHT22;4044;49.814;7.828;2023-04-24T10:28:45;13.10;94.00
7998;DHT22;4044;49.814;7.828;2023-04-24T10:31:10;13.40;93.30
7998;DHT22;4044;49.814;7.828;2023-04-24T10:33:38;13.50;93.40
7998;DHT22;4044;49.814;7.828;2023-04-24T10:36:07;13.70;93.50
7998;DHT22;4044;49.814;7.828;2023-04-24T10:38:34;13.80;93.20
7998;DHT22;4044;49.814;7.828;2023-04-24T10:41:10;13.90;93.20
7998;DHT22;4044;49.814;7.828;2023-04-24T10:43:42;14.20;92.90
7998;DHT22;4044;49.814;7.828;2023-04-24T10:46:08;14.00;92.70
7998;DHT22;4044;49.814;7.828;2023-04-24T10:48:36;13.80;92.30
7998;DHT22;4044;49.814;7.828;2023-04-24T10:51:11;13.70;93.00
7998;DHT22;4044;49.814;7.828;2023-04-24T10:53:38;13.60;93.10
7998;DHT22;4044;49.814;7.828;2023-04-24T10:56:04;13.30;92.30
7998;DHT22;4044;49.814;7.828;2023-04-24T10:58:42;13.50;93.50
7998;DHT22;4044;49.814;7.828;2023-04-24T11:01:31;13.90;93.10
7998;DHT22;4044;49.814;7.828;2023-04-24T11:04:02;14.00;92.50
7998;DHT22;4044;49.814;7.828;2023-04-24T11:06:33;13.20;94.90
7998;DHT22;4044;49.814;7.828;2023-04-24T11:09:07;12.30;96.50
7998;DHT22;4044;49.814;7.828;2023-04-24T11:11:34;11.90;99.40
7998;DHT22;4044;49.814;7.828;2023-04-24T11:14:02;11.60;99.20
7998;DHT22;4044;49.814;7.828;2023-04-24T11:22:02;11.20;99.90
7998;DHT22;4044;49.814;7.828;2023-04-24T11:26:58;12.00;99.90
7998;DHT22;4044;49.814;7.828;2023-04-24T11:34:59;12.60;97.90
7998;DHT22;4044;49.814;7.828;2023-04-24T11:37:29;12.20;97.50
7998;DHT22;4044;49.814;7.828;2023-04-24T11:39:58;11.10;98.30
7998;DHT22;4044;49.814;7.828;2023-04-24T11:42:24;10.80;99.60
7998;DHT22;4044;49.814;7.828;2023-04-24T11:44:52;10.80;99.90
7998;DHT22;4044;49.814;7.828;2023-04-24T11:47:18;11.10;99.90
7998;DHT22;4044;49.814;7.828;2023-04-24T11:49:44;11.40;98.90
7998;DHT22;4044;49.814;7.828;2023-04-24T11:52:10;11.90;99.10
7998;DHT22;4044;49.814;7.828;2023-04-24T11:54:36;12.40;97.90
7998;DHT22;4044;49.814;7.828;2023-04-24T11:57:04;12.60;96.90
7998;DHT22;4044;49.814;7.828;2023-04-24T11:59:36;13.70;97.80
7998;DHT22;4044;49.814;7.828;2023-04-24T12:02:02;14.40;95.20
7998;DHT22;4044;49.814;7.828;2023-04-24T12:04:38;14.30;94.80
7998;DHT22;4044;49.814;7.828;2023-04-24T12:07:04;14.10;93.80
7998;DHT22;4044;49.814;7.828;2023-04-24T12:12:08;13.30;92.50
7998;DHT22;4044;49.814;7.828;2023-04-24T12:15:06;13.40;93.10
7998;DHT22;4044;49.814;7.828;2023-04-24T12:17:30;13.50;91.70
7998;DHT22;4044;49.814;7.828;2023-04-24T12:20:03;13.90;92.10
7998;DHT22;4044;49.814;7.828;2023-04-24T12:22:50;14.00;91.60
7998;DHT22;4044;49.814;7.828;2023-04-24T12:25:18;13.90;90.10
7998;DHT22;4044;49.814;7.828;2023-04-24T12:27:52;13.90;90.80
7998;DHT22;4044;49.814;7.828;2023-04-24T12:30:18;13.90;90.50
7998;DHT22;4044;49.814;7.828;2023-04-24T12:32:46;13.80;90.20
7998;DHT22;4044;49.814;7.828;2023-04-24T12:35:13;13.60;87.70
7998;DHT22;4044;49.814;7.828;2023-04-24T12:37:41;13.40;90.30
7998;DHT22;4044;49.814;7.828;2023-04-24T12:40:12;13.50;91.00
7998;DHT22;4044;49.814;7.828;2023-04-24T12:42:48;13.40;90.90
7998;DHT22;4044;49.814;7.828;2023-04-24T12:45:15;13.20;93.90
7998;DHT22;4044;49.814;7.828;2023-04-24T12:47:42;12.90;96.00
7998;DHT22;4044;49.814;7.828;2023-04-24T12:50:10;13.00;96.10
7998;DHT22;4044;49.814;7.828;2023-04-24T12:52:36;13.00;94.30
7998;DHT22;4044;49.814;7.828;2023-04-24T12:55:02;13.20;94.60
7998;DHT22;4044;49.814;7.828;2023-04-24T12:57:29;13.30;93.10
7998;DHT22;4044;49.814;7.828;2023-04-24T12:59:56;13.50;92.50
7998;DHT22;4044;49.814;7.828;2023-04-24T13:02:23;14.00;92.30
7998;DHT22;4044;49.814;7.828;2023-04-24T13:04:49;14.40;92.00
7998;DHT22;4044;49.814;7.828;2023-04-24T13:07:15;14.60;92.40
7998;DHT22;4044;49.814;7.828;2023-04-24T13:09:42;14.50;91.40
7998;DHT22;4044;49.814;7.828;2023-04-24T13:12:08;14.30;90.70
7998;DHT22;4044;49.814;7.828;2023-04-24T13:14:35;14.20;90.90
7998;DHT22;4044;49.814;7.828;2023-04-24T13:17:00;14.30;90.30
7998;DHT22;4044;49.814;7.828;2023-04-24T13:19:26;14.30;89.60
7998;DHT22;4044;49.814;7.828;2023-04-24T13:21:56;14.20;88.50
7998;DHT22;4044;49.814;7.828;2023-04-24T13:24:24;14.10;87.40
7998;DHT22;4044;49.814;7.828;2023-04-24T13:26:50;14.10;87.60
7998;DHT22;4044;49.814;7.828;2023-04-24T13:29:15;14.40;88.10
7998;DHT22;4044;49.814;7.828;2023-04-24T13:31:41;14.60;88.50
7998;DHT22;4044;49.814;7.828;2023-04-24T13:34:07;14.80;88.80
7998;DHT22;4044;49.814;7.828;2023-04-24T13:36:32;14.70;86.40
7998;DHT22;4044;49.814;7.828;2023-04-24T13:38:58;14.50;87.60
7998;DHT22;4044;49.814;7.828;2023-04-24T13:41:24;14.40;85.20
7998;DHT22;4044;49.814;7.828;2023-04-24T13:43:49;14.40;86.00
7998;DHT22;4044;49.814;7.828;2023-04-24T13:46:15;14.30;85.50
7998;DHT22;4044;49.814;7.828;2023-04-24T13:48:40;14.20;87.10
7998;DHT22;4044;49.814;7.828;2023-04-24T13:51:06;14.30;86.90
7998;DHT22;4044;49.814;7.828;2023-04-24T13:53:31;14.50;85.30
7998;DHT22;4044;49.814;7.828;2023-04-24T13:55:58;14.60;86.90
7998;DHT22;4044;49.814;7.828;2023-04-24T13:58:23;14.50;85.70
7998;DHT22;4044;49.814;7.828;2023-04-24T14:00:49;14.70;86.40
7998;DHT22;4044;49.814;7.828;2023-04-24T14:03:14;14.40;85.80
7998;DHT22;4044;49.814;7.828;2023-04-24T14:05:40;13.80;88.40
7998;DHT22;4044;49.814;7.828;2023-04-24T14:08:06;13.20;90.90
7998;DHT22;4044;49.814;7.828;2023-04-24T14:10:31;12.70;94.10
7998;DHT22;4044;49.814;7.828;2023-04-24T14:12:57;12.70;99.90
7998;DHT22;4044;49.814;7.828;2023-04-24T14:15:23;13.30;99.90
7998;DHT22;4044;49.814;7.828;2023-04-24T14:17:48;13.80;99.90
7998;DHT22;4044;49.814;7.828;2023-04-24T14:20:15;14.20;97.70
7998;DHT22;4044;49.814;7.828;2023-04-24T14:22:40;14.60;99.30
7998;DHT22;4044;49.814;7.828;2023-04-24T14:25:06;15.50;98.70
7998;DHT22;4044;49.814;7.828;2023-04-24T14:27:32;15.60;95.60
7998;DHT22;4044;49.814;7.828;2023-04-24T14:29:59;15.60;93.90
7998;DHT22;4044;49.814;7.828;2023-04-24T14:32:25;15.80;95.00
7998;DHT22;4044;49.814;7.828;2023-04-24T14:34:51;16.70;92.10
7998;DHT22;4044;49.814;7.828;2023-04-24T14:37:16;16.60;92.80
7998;DHT22;4044;49.814;7.828;2023-04-24T14:39:42;16.40;92.80
7998;DHT22;4044;49.814;7.828;2023-04-24T14:42:07;15.90;91.80
7998;DHT22;4044;49.814;7.828;2023-04-24T14:44:33;15.80;91.00
7998;DHT22;4044;49.814;7.828;2023-04-24T14:46:59;15.60;91.10
7998;DHT22;4044;49.814;7.828;2023-04-24T14:49:25;15.90;92.50
7998;DHT22;4044;49.814;7.828;2023-04-24T14:51:50;16.70;91.20
7998;DHT22;4044;49.814;7.828;2023-04-24T14:54:16;17.50;91.40
7998;DHT22;4044;49.814;7.828;2023-04-24T14:56:41;18.80;90.00
7998;DHT22;4044;49.814;7.828;2023-04-24T14:59:09;19.60;89.90
7998;DHT22;4044;49.814;7.828;2023-04-24T15:01:34;20.40;86.50
7998;DHT22;4044;49.814;7.828;2023-04-24T15:04:00;20.70;80.70
7998;DHT22;4044;49.814;7.828;2023-04-24T15:06:25;21.20;80.20
7998;DHT22;4044;49.814;7.828;2023-04-24T15:08:51;21.10;73.40
7998;DHT22;4044;49.814;7.828;2023-04-24T15:11:17;21.20;77.30
7998;DHT22;4044;49.814;7.828;2023-04-24T15:13:42;21.00;77.00
7998;DHT22;4044;49.814;7.828;2023-04-24T15:16:10;20.00;74.20
7998;DHT22;4044;49.814;7.828;2023-04-24T15:18:36;20.10;77.30
7998;DHT22;4044;49.814;7.828;2023-04-24T15:21:01;20.50;75.10
7998;DHT22;4044;49.814;7.828;2023-04-24T15:23:27;20.00;76.00
7998;DHT22;4044;49.814;7.828;2023-04-24T15:25:52;19.70;75.10
7998;DHT22;4044;49.814;7.828;2023-04-24T15:28:18;19.40;77.30
7998;DHT22;4044;49.814;7.828;2023-04-24T15:30:44;18.90;77.00
7998;DHT22;4044;49.814;7.828;2023-04-24T15:33:09;18.60;77.20
7998;DHT22;4044;49.814;7.828;2023-04-24T15:35:35;17.90;75.70
7998;DHT22;4044;49.814;7.828;2023-04-24T15:38:00;18.80;77.10
7998;DHT22;4044;49.814;7.828;2023-04-24T15:40:26;19.60;76.60
7998;DHT22;4044;49.814;7.828;2023-04-24T15:42:52;19.60;78.80
7998;DHT22;4044;49.814;7.828;2023-04-24T15:45:18;19.30;78.40
7998;DHT22;4044;49.814;7.828;2023-04-24T15:47:44;19.50;76.60
7998;DHT22;4044;49.814;7.828;2023-04-24T15:50:11;18.30;78.80
7998;DHT22;4044;49.814;7.828;2023-04-24T15:52:37;18.10;81.10
7998;DHT22;4044;49.814;7.828;2023-04-24T15:55:03;18.60;83.40
7998;DHT22;4044;49.814;7.828;2023-04-24T15:57:30;18.10;81.60
7998;DHT22;4044;49.814;7.828;2023-04-24T15:59:56;17.70;82.00
7998;DHT22;4044;49.814;7.828;2023-04-24T16:02:22;17.50;83.80
7998;DHT22;4044;49.814;7.828;2023-04-24T16:04:49;17.10;83.80
7998;DHT22;4044;49.814;7.828;2023-04-24T16:07:15;16.60;84.10
7998;DHT22;4044;49.814;7.828;2023-04-24T16:09:42;16.30;85.30
7998;DHT22;4044;49.814;7.828;2023-04-24T16:12:08;16.00;85.70
7998;DHT22;4044;49.814;7.828;2023-04-24T16:14:35;15.50;86.60